WetterOnline ( https://www.wetteronline.de )

Wetter aktuell Amorbach

Aktuelles Wetter: Michelstadt-Vielbrunn (455m)

6-stündlich | Neueste Meldungen
Ortszeit Temperatur Wetter
Do, 30.05. 2:00 12.5° C bedeckt
Mi, 29.05. 20:00 14.1° C bewölkt
Mi, 29.05. 14:00 15.9° C bedeckt
Mi, 29.05. 8:00 14.1° C bedeckt
Mi, 29.05. 2:00 14.3° C bedeckt
Di, 28.05. 20:00 16.3° C fast wolkenlos
Di, 28.05. 14:00 15.9° C bewölkt
Di, 28.05. 8:00 10.8° C wolkenlos
Ortszeit Temperatur Wetter
Do, 30.05. 4:00 11.7° C leichter Regen
Do, 30.05. 3:50 11.7° C leichter Regen
Do, 30.05. 3:40 11.7° C leichter Regen
Do, 30.05. 3:30 11.8° C Regen
Do, 30.05. 3:20 11.8° C Regen
Do, 30.05. 3:10 11.9° C Regen
Do, 30.05. 3:00 12.1° C leichter Regen
Do, 30.05. 2:30 12.3° C leichter Regen
Do, 30.05. 2:00 12.5° C bedeckt
Do, 30.05. 1:30 12.4° C bedeckt
Do, 30.05. 1:00 12.4° C bedeckt
Ortszeit Relative Feuchte Sichtweite
Do, 30.05. 2:00 92% -
Mi, 29.05. 20:00 84% 55 km
Mi, 29.05. 14:00 75% 65 km
Mi, 29.05. 8:00 75% 55 km
Mi, 29.05. 2:00 61% 60 km
Di, 28.05. 20:00 49% 50 km
Di, 28.05. 14:00 56% >70 km
Di, 28.05. 8:00 83% 65 km
Ortszeit Relative Feuchte Sichtweite
Do, 30.05. 4:00 99% 6 km
Do, 30.05. 3:50 99% -
Do, 30.05. 3:40 100% -
Do, 30.05. 3:30 100% 5.0 km
Do, 30.05. 3:20 100% -
Do, 30.05. 3:10 99% -
Do, 30.05. 3:00 96% 10 km
Do, 30.05. 2:30 92% 13 km
Do, 30.05. 2:00 92% 55 km
Do, 30.05. 1:30 94% 55 km
Do, 30.05. 1:00 94% 60 km
Ortszeit Niederschlagsmenge Niederschlagsart
Do, 30.05. 2:00 0.1 l/m2 in 6 Std. Regen
Mi, 29.05. 20:00 0.2 l/m2 in 12 Std. Regen
Mi, 29.05. 14:00 0.2 l/m2 in 6 Std. Regen
Mi, 29.05. 8:00 0.0 l/m2 in 12 Std. -
Mi, 29.05. 2:00 0.0 l/m2 in 6 Std. -
Di, 28.05. 20:00 0.0 l/m2 in 12 Std. -
Di, 28.05. 14:00 0.0 l/m2 in 6 Std. -
Di, 28.05. 8:00 1 l/m2 in 12 Std. -
Ortszeit Niederschlagsmenge Niederschlagsart
Do, 30.05. 4:00 1.7 l/m2 in 1 Std. Regen
Do, 30.05. 3:50 keine Meldung -
Do, 30.05. 3:40 keine Meldung -
Do, 30.05. 3:30 1.5 l/m2 in 30 Min -
Do, 30.05. 3:20 keine Meldung -
Do, 30.05. 3:10 keine Meldung -
Do, 30.05. 3:00 0.5 l/m2 in 1 Std. Regen
Do, 30.05. 2:30 <0.05 l/m2 in 30 Min -
Do, 30.05. 2:00 <0.05 l/m2 in 1 Std. Regen
Do, 30.05. 1:30 <0.05 l/m2 in 30 Min Schneeregen
Do, 30.05. 1:00 0.0 l/m2 in 1 Std. -
Ortszeit Stärke Spitze Richtung
km/h Bft. km/h Grad Sektor
Do, 30.05. 2:00 11 2 35 210° SW
Mi, 29.05. 20:00 17 3 41 230° SW
Mi, 29.05. 14:00 18 3 36 200° S
Mi, 29.05. 8:00 11 2 22 210° SW
Mi, 29.05. 2:00 13 3 22 200° S
Di, 28.05. 20:00 11 2 30 220° SW
Di, 28.05. 14:00 11 2 32 270° W
Di, 28.05. 8:00 11 2 25 260° W
Ortszeit Stärke Spitze Richtung
km/h Bft. km/h Grad Sektor
Do, 30.05. 4:00 6 1 9 140° SO
Do, 30.05. 3:50 6 1 - 140° SO
Do, 30.05. 3:40 4 1 - 150° SO
Do, 30.05. 3:30 4 1 7 180° S
Do, 30.05. 3:20 4 1 - 180° S
Do, 30.05. 3:10 6 1 - 180° S
Do, 30.05. 3:00 7 2 19 190° S
Do, 30.05. 2:30 9 2 15 200° S
Do, 30.05. 2:00 11 2 19 210° SW
Do, 30.05. 1:30 13 3 19 200° S
Do, 30.05. 1:00 11 2 25 210° SW
Ortszeit Untergrenze Bedeckung Gattung
total tief tief mittel hoch
Do, 30.05. 2:00 1110 m 8/8 8/8 - - -
Mi, 29.05. 20:00 450 m 7/8 7/8 - - -
Mi, 29.05. 14:00 660 m 8/8 8/8 - - -
Mi, 29.05. 8:00 3000 m 8/8 8/8 - - -
Mi, 29.05. 2:00 1500 m 8/8 8/8 - - -
Di, 28.05. 20:00 1500 m 1/8 1/8 - - -
Di, 28.05. 14:00 1800 m 7/8 7/8 - - -
Di, 28.05. 8:00 - 0/8 0/8 - - -
Ortszeit Bedeckungsgrad in Achtel und Wolkenuntergrenze
Do, 30.05. 4:00 2(120m) 6(510m) 8(720m)
Do, 30.05. 3:50 2(120m) 6(510m) 8(720m)
Do, 30.05. 3:40 8
Do, 30.05. 3:30 5(810m) 7(1170m)
Do, 30.05. 3:20 5(810m) 7(1170m)
Do, 30.05. 3:10 8
Do, 30.05. 3:00 1(960m) 7(1320m) 8(1800m)
Do, 30.05. 2:30 7(1500m)
Do, 30.05. 2:00 4(1110m) 8(1800m)
Do, 30.05. 1:30 8(2100m)
Do, 30.05. 1:00 8(2100m)
Ortszeit Luftdruck NN (hPa) Tendenz (hPa in 3 Std.)
Do, 30.05. 2:00 1009 - 1,8
Mi, 29.05. 20:00 1011 - 0,8
Mi, 29.05. 14:00 1013 - 0,7
Mi, 29.05. 8:00 1015 - 0,8
Mi, 29.05. 2:00 1017 - 1,1
Di, 28.05. 20:00 1018 - 0,7
Di, 28.05. 14:00 1020 - 0,4
Di, 28.05. 8:00 1020 + 0,8
Ortszeit Luftdruck NN (hPa) Tendenz (hPa in 3 Std.)
Do, 30.05. 4:00 1007 - 2,2
Do, 30.05. 3:50 1007 keine Meldung
Do, 30.05. 3:40 1007 keine Meldung
Do, 30.05. 3:30 1008 - 2,1
Do, 30.05. 3:20 1008 keine Meldung
Do, 30.05. 3:10 1008 keine Meldung
Do, 30.05. 3:00 1008 - 2,2
Do, 30.05. 2:30 1008 - 1,8
Do, 30.05. 2:00 1009 - 1,8
Do, 30.05. 1:30 1009 - 1,6
Do, 30.05. 1:00 1009 - 1,5
Ortszeit Schneehöhe (cm)
Do, 30.05. 2:00 0
Mi, 29.05. 20:00 0
Mi, 29.05. 14:00 0
Mi, 29.05. 8:00 0
Mi, 29.05. 2:00 0
Di, 28.05. 20:00 0
Di, 28.05. 14:00 0
Di, 28.05. 8:00 0
Ortszeit Schneehöhe (cm)
Do, 30.05. 4:00 0
Do, 30.05. 3:50 0
Do, 30.05. 3:40 -
Do, 30.05. 3:30 0
Do, 30.05. 3:20 0
Do, 30.05. 3:10 -
Do, 30.05. 3:00 0
Do, 30.05. 2:30 0
Do, 30.05. 2:00 0
Do, 30.05. 1:30 0
Do, 30.05. 1:00 0
Link zu dieser Seite / Seite empfehlen

Das Wetter in ...